Time;durP1;ratioP1;P1;durP2;ratioP2;P2;SDS_P1;SDS_P2;PMS_P1;PMS_P2;Temp;Humidity;BMP_temperature;BMP_pressure;BME280_temperature;BME280_humidity;BME280_pressure;Samples;Min_cycle;Max_cycle;Signal;HPM_P1;HPM_P2
2023/08/20 00:02:00;;;;;;;9.20;4.55;;;23.80;80.70;;;;;;5054681;28;20032;-75
2023/08/20 00:04:27;;;;;;;15.57;6.00;;;23.70;81.10;;;;;;5058579;28;20025;-74
2023/08/20 00:06:53;;;;;;;12.93;4.68;;;23.60;81.80;;;;;;5058754;28;20024;-75
2023/08/20 00:09:19;;;;;;;13.05;4.30;;;23.50;81.70;;;;;;5056861;28;20407;-74
2023/08/20 00:11:44;;;;;;;11.57;4.20;;;23.60;81.50;;;;;;5060344;28;20032;-74
2023/08/20 00:14:17;;;;;;;14.57;4.63;;;23.60;81.60;;;;;;5063331;28;20039;-69
2023/08/20 00:16:43;;;;;;;14.85;4.30;;;23.50;82.30;;;;;;5060370;28;20032;-73
2023/08/20 00:19:09;;;;;;;;;;;23.50;82.80;;;;;;5056252;28;20028;-74
2023/08/20 00:21:35;;;;;;;16.67;5.43;;;23.40;83.30;;;;;;5057238;28;19951;-76
2023/08/20 00:24:01;;;;;;;;;;;23.50;83.30;;;;;;5060040;28;20118;-75
2023/08/20 00:26:27;;;;;;;14.18;5.50;;;23.40;83.60;;;;;;5060971;28;19987;-73
2023/08/20 00:28:52;;;;;;;13.77;5.20;;;23.40;83.50;;;;;;5060555;28;20528;-72
2023/08/20 00:31:18;;;;;;;18.93;5.00;;;23.40;83.70;;;;;;5063468;28;20089;-75
2023/08/20 00:33:43;;;;;;;11.33;4.90;;;23.30;83.90;;;;;;5065967;28;20028;-72
2023/08/20 00:36:09;;;;;;;18.00;5.40;;;23.50;83.70;;;;;;5062455;28;20032;-70
2023/08/20 00:38:34;;;;;;;11.00;4.47;;;23.40;84.10;;;;;;5060333;28;20047;-75
2023/08/20 00:41:00;;;;;;;18.17;4.70;;;23.40;84.00;;;;;;5055234;28;20064;-75
2023/08/20 00:43:25;;;;;;;11.40;4.27;;;23.30;84.80;;;;;;5052659;28;20090;-74
2023/08/20 00:45:51;;;;;;;15.43;4.97;;;23.30;84.90;;;;;;5058538;28;20039;-75
2023/08/20 00:48:17;;;;;;;8.60;4.65;;;23.10;85.80;;;;;;5063627;28;20573;-75
2023/08/20 00:50:43;;;;;;;12.55;5.15;;;23.10;86.00;;;;;;5057400;28;20040;-76
2023/08/20 00:53:11;;;;;;;12.13;4.78;;;23.00;86.50;;;;;;5059869;28;20029;-72
2023/08/20 00:55:37;;;;;;;21.00;5.25;;;22.90;86.70;;;;;;5054851;28;20036;-76
2023/08/20 00:58:03;;;;;;;14.87;4.60;;;22.80;87.40;;;;;;5055015;28;20036;-73
2023/08/20 01:00:29;;;;;;;15.07;4.57;;;22.80;87.30;;;;;;5051742;28;20298;-75
2023/08/20 01:02:54;;;;;;;10.23;4.53;;;22.90;87.90;;;;;;5051672;28;20404;-75
2023/08/20 01:05:20;;;;;;;13.13;4.40;;;23.10;86.60;;;;;;5068578;28;20048;-75
2023/08/20 01:08:07;;;;;;;17.48;4.88;;;23.10;86.80;;;;;;5069228;28;20494;-75
2023/08/20 01:10:59;;;;;;;12.20;5.30;;;22.90;87.20;;;;;;5069853;28;20082;-75
2023/08/20 01:13:25;;;;;;;17.52;4.70;;;23.10;87.10;;;;;;5070823;28;20028;-75
2023/08/20 01:15:50;;;;;;;16.88;5.15;;;22.80;87.90;;;;;;5069253;28;20054;-75
2023/08/20 01:18:16;;;;;;;14.30;5.50;;;22.90;88.00;;;;;;5069179;28;20036;-71
2023/08/20 01:20:52;;;;;;;14.93;5.88;;;22.80;89.20;;;;;;5069132;28;20044;-75
2023/08/20 01:23:40;;;;;;;13.75;5.45;;;22.80;88.90;;;;;;5069378;28;20494;-75
2023/08/20 01:26:14;;;;;;;14.10;4.72;;;22.80;89.20;;;;;;5069524;28;20067;-74
2023/08/20 01:28:40;;;;;;;16.20;6.97;;;22.70;89.70;;;;;;5069035;28;20040;-73
2023/08/20 01:31:07;;;;;;;19.23;5.38;;;22.60;90.00;;;;;;5070077;28;20028;-70
2023/08/20 01:33:33;;;;;;;;;;;22.50;90.30;;;;;;5067258;28;20104;-72
2023/08/20 01:35:58;;;;;;;11.00;5.15;;;22.60;90.10;;;;;;5055619;28;19908;-73
2023/08/20 01:38:24;;;;;;;14.50;5.30;;;22.50;90.40;;;;;;5068434;28;20496;-73
2023/08/20 01:40:50;;;;;;;21.00;5.63;;;22.50;90.60;;;;;;5068196;28;20040;-73
2023/08/20 01:43:15;;;;;;;15.10;5.30;;;22.60;90.60;;;;;;5057450;28;20024;-72
2023/08/20 01:45:41;;;;;;;10.85;5.35;;;22.50;90.80;;;;;;5066732;28;20102;-72
2023/08/20 01:48:07;;;;;;;13.23;5.25;;;22.40;91.20;;;;;;5068759;28;20027;-72
2023/08/20 01:50:34;;;;;;;10.40;4.90;;;22.40;91.30;;;;;;5068834;28;20351;-73
2023/08/20 01:53:00;;;;;;;10.07;5.10;;;22.50;91.30;;;;;;5068837;28;20274;-72
2023/08/20 01:55:26;;;;;;;12.95;5.25;;;22.30;91.60;;;;;;5068753;28;20024;-72
2023/08/20 01:57:51;;;;;;;17.00;5.20;;;22.20;91.80;;;;;;5069013;28;20439;-73
2023/08/20 02:00:20;;;;;;;16.10;5.47;;;22.30;91.90;;;;;;5068926;28;20147;-73
2023/08/20 02:02:45;;;;;;;13.82;5.38;;;22.40;91.80;;;;;;5068654;28;20021;-72
2023/08/20 02:05:11;;;;;;;19.17;5.43;;;22.50;91.70;;;;;;5067871;28;20039;-73
2023/08/20 02:07:36;;;;;;;14.97;5.47;;;22.40;91.80;;;;;;5069359;28;20021;-72
2023/08/20 02:10:02;;;;;;;9.25;5.43;;;22.30;92.00;;;;;;5068652;28;20024;-72
2023/08/20 02:12:28;;;;;;;13.98;5.97;;;22.40;92.00;;;;;;5068661;28;20032;-73
2023/08/20 02:14:54;;;;;;;15.57;5.70;;;22.30;92.10;;;;;;5068495;28;20486;-72
2023/08/20 02:17:19;;;;;;;12.25;5.38;;;22.20;92.50;;;;;;5068974;28;20029;-73
2023/08/20 02:19:45;;;;;;;11.60;5.23;;;22.30;92.60;;;;;;5068278;28;20036;-72
2023/08/20 02:22:10;;;;;;;12.97;5.90;;;22.20;92.60;;;;;;5067362;28;20042;-72
2023/08/20 02:24:36;;;;;;;8.77;5.80;;;22.20;92.80;;;;;;5068234;28;20056;-72
2023/08/20 02:27:02;;;;;;;13.48;5.32;;;22.20;93.10;;;;;;5067552;28;20329;-72
2023/08/20 02:29:28;;;;;;;14.05;6.63;;;22.10;93.30;;;;;;5067773;28;20108;-72
2023/08/20 02:31:54;;;;;;;18.67;5.67;;;22.20;93.30;;;;;;5067700;28;21043;-73
2023/08/20 02:34:19;;;;;;;13.23;5.27;;;22.10;93.50;;;;;;5061703;28;20100;-71
2023/08/20 02:36:45;;;;;;;18.25;5.80;;;22.00;94.20;;;;;;5065274;28;20029;-72
2023/08/20 02:39:11;;;;;;;12.70;5.53;;;22.00;94.50;;;;;;5076195;28;20486;-72
2023/08/20 02:41:36;;;;;;;13.53;5.20;;;22.10;94.20;;;;;;5081311;28;20389;-71
2023/08/20 02:44:03;;;;;;;12.23;5.82;;;22.00;94.20;;;;;;5067841;28;20056;-72
2023/08/20 02:46:29;;;;;;;14.57;6.07;;;22.00;94.00;;;;;;5067792;28;20066;-72
2023/08/20 02:48:55;;;;;;;11.57;6.28;;;22.00;94.20;;;;;;5066605;28;20032;-73
2023/08/20 02:51:20;;;;;;;13.00;5.70;;;22.00;94.50;;;;;;5067520;28;20691;-72
2023/08/20 02:53:46;;;;;;;17.67;6.13;;;21.90;94.70;;;;;;5067177;28;20039;-71
2023/08/20 02:56:12;;;;;;;11.87;5.47;;;21.90;94.80;;;;;;5066707;28;20774;-73
2023/08/20 02:58:37;;;;;;;14.97;5.77;;;22.10;94.80;;;;;;5067387;28;20040;-73
2023/08/20 03:01:03;;;;;;;9.67;5.37;;;22.10;94.90;;;;;;5067215;28;20039;-73
2023/08/20 03:03:28;;;;;;;11.77;5.40;;;22.10;94.70;;;;;;5066622;28;20032;-73
2023/08/20 03:05:54;;;;;;;9.40;5.23;;;22.00;95.00;;;;;;5066455;28;20090;-72
2023/08/20 03:08:20;;;;;;;10.27;6.23;;;22.00;95.00;;;;;;5067336;28;20024;-72
2023/08/20 03:10:45;;;;;;;10.10;5.20;;;21.90;95.20;;;;;;5067571;28;20832;-72
2023/08/20 03:13:11;;;;;;;13.48;5.78;;;21.80;95.50;;;;;;5067195;28;20063;-72
2023/08/20 03:15:37;;;;;;;8.70;5.37;;;21.70;95.70;;;;;;5067303;28;20032;-72
2023/08/20 03:18:03;;;;;;;14.23;5.80;;;21.70;95.90;;;;;;5066353;28;20028;-73
2023/08/20 03:20:30;;;;;;;11.10;5.70;;;21.70;96.50;;;;;;5067533;28;20555;-72
2023/08/20 03:22:56;;;;;;;8.60;6.07;;;21.50;96.50;;;;;;5068186;28;20422;-73
2023/08/20 03:25:25;;;;;;;10.70;5.22;;;21.40;97.10;;;;;;5068027;28;20020;-73
2023/08/20 03:27:52;;;;;;;13.82;6.22;;;21.50;97.30;;;;;;5066591;28;20516;-72
2023/08/20 03:30:18;;;;;;;13.40;6.47;;;21.50;97.60;;;;;;5067076;28;20108;-72
2023/08/20 03:32:43;;;;;;;14.13;6.00;;;21.50;97.80;;;;;;5066700;28;20116;-72
2023/08/20 03:35:09;;;;;;;15.27;6.07;;;21.50;97.90;;;;;;5066949;28;20486;-72
2023/08/20 03:37:35;;;;;;;10.35;5.88;;;21.50;98.10;;;;;;5066439;28;20078;-72
2023/08/20 03:40:01;;;;;;;13.60;6.60;;;21.60;97.90;;;;;;5066429;28;20060;-71
2023/08/20 03:42:26;;;;;;;13.40;5.87;;;21.60;97.90;;;;;;5052145;28;20469;-72
2023/08/20 03:44:52;;;;;;;12.93;6.37;;;21.50;98.10;;;;;;5061047;28;21075;-72
2023/08/20 03:47:20;;;;;;;11.30;6.17;;;21.50;98.00;;;;;;5066364;28;20033;-72
2023/08/20 03:49:47;;;;;;;15.90;6.93;;;21.50;98.50;;;;;;5066231;28;20391;-74
2023/08/20 03:52:12;;;;;;;11.93;6.22;;;21.50;99.00;;;;;;5066456;28;20030;-71
2023/08/20 03:54:38;;;;;;;10.00;5.80;;;21.40;99.70;;;;;;5066455;28;20103;-73
2023/08/20 03:57:03;;;;;;;10.33;6.13;;;21.30;99.90;;;;;;5061514;28;20032;-74
2023/08/20 03:59:30;;;;;;;9.30;6.67;;;21.20;99.90;;;;;;5061934;28;20476;-74
2023/08/20 04:01:56;;;;;;;9.55;6.13;;;21.20;99.90;;;;;;5066619;28;20112;-75
2023/08/20 04:04:22;;;;;;;12.63;6.50;;;21.50;99.90;;;;;;5066765;28;20176;-74
2023/08/20 04:06:47;;;;;;;12.10;5.90;;;21.30;99.90;;;;;;5066312;28;20059;-74
2023/08/20 04:09:13;;;;;;;19.63;6.33;;;21.30;99.90;;;;;;5066747;28;20028;-72
2023/08/20 04:11:39;;;;;;;17.53;6.13;;;21.20;99.90;;;;;;5066311;28;20055;-72
2023/08/20 04:14:04;;;;;;;16.27;6.07;;;21.30;99.90;;;;;;5066289;28;20029;-73
2023/08/20 04:16:30;;;;;;;10.87;6.53;;;21.10;99.90;;;;;;5057343;28;20029;-74
2023/08/20 04:18:56;;;;;;;10.83;5.23;;;21.10;99.90;;;;;;5054102;28;20078;-74
2023/08/20 04:21:21;;;;;;;9.82;5.82;;;21.10;99.90;;;;;;5056520;28;20454;-74
2023/08/20 04:23:47;;;;;;;14.37;6.00;;;21.10;99.90;;;;;;5063856;28;20116;-74
2023/08/20 04:26:13;;;;;;;19.80;6.90;;;21.10;99.90;;;;;;5061710;28;20279;-74
2023/08/20 04:28:39;;;;;;;12.20;5.87;;;21.20;99.90;;;;;;5057000;28;20067;-74
2023/08/20 04:31:04;;;;;;;15.13;6.87;;;21.10;99.90;;;;;;5054446;28;20079;-72
2023/08/20 04:33:30;;;;;;;16.87;6.57;;;21.10;99.90;;;;;;5057723;28;20037;-73
2023/08/20 04:35:55;;;;;;;11.80;6.40;;;21.00;99.90;;;;;;5059825;28;20045;-73
2023/08/20 04:38:21;;;;;;;13.70;6.13;;;21.10;99.90;;;;;;5060306;28;20024;-73
2023/08/20 04:40:48;;;;;;;14.77;6.57;;;21.10;99.90;;;;;;5059738;28;20124;-73
2023/08/20 04:43:13;;;;;;;10.52;6.68;;;21.00;99.90;;;;;;5059939;28;20074;-73
2023/08/20 04:45:39;;;;;;;10.13;6.82;;;21.00;99.90;;;;;;5053592;28;20041;-73
2023/08/20 04:48:05;;;;;;;11.53;6.43;;;21.00;99.90;;;;;;5066436;28;20020;-73
2023/08/20 04:50:30;;;;;;;15.05;6.40;;;21.00;99.90;;;;;;5054031;28;20093;-72
2023/08/20 04:52:58;;;;;;;11.77;6.43;;;20.90;99.90;;;;;;5058659;28;20047;-72
2023/08/20 04:55:24;;;;;;;14.88;6.35;;;20.90;99.90;;;;;;5059348;28;20028;-72
2023/08/20 04:57:50;;;;;;;9.70;6.63;;;21.00;99.90;;;;;;5051465;28;20033;-73
2023/08/20 05:00:15;;;;;;;14.67;6.47;;;21.00;99.90;;;;;;5070659;28;20443;-73
2023/08/20 05:02:41;;;;;;;16.60;6.80;;;20.90;99.90;;;;;;5058722;28;20029;-74
2023/08/20 05:05:07;;;;;;;14.17;6.53;;;21.10;99.90;;;;;;5060797;28;20037;-74
2023/08/20 05:07:32;;;;;;;16.92;6.95;;;21.00;99.90;;;;;;5056338;28;20071;-74
2023/08/20 05:09:58;;;;;;;16.20;6.60;;;20.90;99.90;;;;;;5064891;28;20036;-74
2023/08/20 05:12:24;;;;;;;14.57;6.97;;;21.00;99.90;;;;;;5058726;28;20035;-73
2023/08/20 05:14:49;;;;;;;13.47;7.60;;;21.00;99.90;;;;;;5059087;28;20066;-73
2023/08/20 05:17:15;;;;;;;9.57;6.83;;;21.00;99.90;;;;;;5058753;28;20071;-72
2023/08/20 05:19:40;;;;;;;10.37;6.90;;;21.10;99.90;;;;;;5059700;28;20594;-72
2023/08/20 05:22:06;;;;;;;15.00;7.63;;;21.10;99.90;;;;;;5055215;28;20055;-73
2023/08/20 05:24:31;;;;;;;18.63;7.27;;;21.10;99.90;;;;;;5066250;28;20496;-72
2023/08/20 05:27:04;;;;;;;13.17;7.43;;;21.20;99.90;;;;;;5060216;28;20074;-74
2023/08/20 05:29:30;;;;;;;14.45;6.70;;;21.20;99.90;;;;;;5059472;28;20032;-74
2023/08/20 05:31:55;;;;;;;14.93;7.30;;;21.10;99.90;;;;;;5059066;28;20037;-74
2023/08/20 05:34:21;;;;;;;13.50;7.23;;;21.30;99.90;;;;;;5059442;28;20025;-74
2023/08/20 05:36:46;;;;;;;10.83;6.47;;;21.20;99.90;;;;;;5062649;28;20043;-74
2023/08/20 05:39:12;;;;;;;14.77;6.47;;;21.30;99.90;;;;;;5056354;28;20044;-74
2023/08/20 05:41:38;;;;;;;13.13;6.63;;;21.40;99.90;;;;;;5058135;28;20361;-73
2023/08/20 05:44:04;;;;;;;11.03;6.90;;;21.80;99.90;;;;;;5056163;28;20094;-74
2023/08/20 05:46:29;;;;;;;12.93;7.10;;;22.70;99.90;;;;;;5055174;28;20059;-74
2023/08/20 05:48:55;;;;;;;9.07;6.50;;;23.10;98.10;;;;;;5057171;28;20033;-72
2023/08/20 05:51:20;;;;;;;14.43;6.73;;;22.90;98.30;;;;;;5068753;28;20470;-75
2023/08/20 05:53:46;;;;;;;9.70;6.73;;;22.60;99.50;;;;;;5057018;28;20622;-79
2023/08/20 05:56:11;;;;;;;11.47;6.90;;;22.10;99.90;;;;;;5052610;28;20036;-76
2023/08/20 05:58:37;;;;;;;18.70;7.00;;;22.20;99.90;;;;;;5054858;28;20890;-79
2023/08/20 06:01:03;;;;;;;13.68;6.63;;;22.20;99.90;;;;;;5054660;28;20060;-79
2023/08/20 06:03:28;;;;;;;16.00;7.43;;;22.10;99.90;;;;;;5054806;28;20077;-77
2023/08/20 06:05:56;;;;;;;16.20;7.33;;;22.20;99.90;;;;;;5057981;28;20025;-75
2023/08/20 06:08:21;;;;;;;10.55;6.68;;;22.30;99.90;;;;;;5053168;28;20124;-77
2023/08/20 06:10:47;;;;;;;12.60;6.97;;;22.50;99.90;;;;;;5042239;28;20108;-76
2023/08/20 06:13:13;;;;;;;13.60;7.60;;;22.80;99.90;;;;;;5034375;28;20120;-77
2023/08/20 06:15:38;;;;;;;15.30;7.20;;;23.00;99.30;;;;;;5035050;28;20062;-74
2023/08/20 06:18:04;;;;;;;14.03;8.43;;;22.80;99.90;;;;;;5031512;28;20032;-78
2023/08/20 06:20:30;;;;;;;9.85;7.22;;;22.70;99.90;;;;;;5033946;28;20504;-78
2023/08/20 06:22:55;;;;;;;20.10;6.97;;;22.80;99.90;;;;;;5032282;28;20044;-77
2023/08/20 06:25:21;;;;;;;10.30;7.33;;;22.70;99.90;;;;;;5031573;28;20037;-78
2023/08/20 06:27:47;;;;;;;13.87;7.33;;;22.70;99.90;;;;;;5034147;28;20065;-75
2023/08/20 06:30:12;;;;;;;16.20;6.73;;;23.00;99.90;;;;;;5035702;28;20504;-77
2023/08/20 06:32:38;;;;;;;13.85;7.25;;;23.50;99.90;;;;;;5034042;28;20033;-76
2023/08/20 06:35:04;;;;;;;12.30;7.73;;;23.70;99.40;;;;;;5035159;28;20044;-77
2023/08/20 06:37:29;;;;;;;14.10;7.18;;;24.00;97.70;;;;;;5037503;28;20064;-75
2023/08/20 06:39:55;;;;;;;12.10;7.23;;;23.80;98.80;;;;;;5038221;28;20450;-73
2023/08/20 06:42:21;;;;;;;12.37;7.33;;;23.70;99.90;;;;;;5038652;28;20064;-71
2023/08/20 06:44:46;;;;;;;22.50;7.50;;;23.70;99.90;;;;;;5034451;28;20057;-77
2023/08/20 06:47:13;;;;;;;11.30;7.70;;;23.70;99.90;;;;;;5034750;28;20128;-76
2023/08/20 06:49:38;;;;;;;11.55;6.63;;;23.80;99.90;;;;;;5033580;28;20032;-76
2023/08/20 06:52:04;;;;;;;12.77;7.23;;;23.90;99.90;;;;;;5032849;28;20392;-77
2023/08/20 06:54:30;;;;;;;13.00;7.53;;;23.90;99.90;;;;;;5048084;28;20854;-76
2023/08/20 06:56:55;;;;;;;10.97;7.17;;;24.00;99.90;;;;;;5034497;28;20505;-77
2023/08/20 06:59:21;;;;;;;13.27;7.77;;;24.00;99.90;;;;;;5030984;28;20424;-75
2023/08/20 07:01:46;;;;;;;14.67;7.83;;;24.10;99.90;;;;;;5034413;28;20049;-78
2023/08/20 07:04:12;;;;;;;10.47;7.53;;;24.20;99.90;;;;;;5046713;28;20037;-78
2023/08/20 07:06:39;;;;;;;8.75;7.53;;;24.40;99.90;;;;;;5033466;28;20061;-75
2023/08/20 07:09:04;;;;;;;14.23;7.13;;;24.40;99.90;;;;;;5034543;28;20029;-74
2023/08/20 07:11:30;;;;;;;12.43;7.32;;;24.40;99.90;;;;;;5034520;28;20134;-72
2023/08/20 07:13:56;;;;;;;10.88;7.72;;;24.40;99.90;;;;;;5032820;28;20025;-75
2023/08/20 07:16:21;;;;;;;12.00;7.68;;;24.90;99.40;;;;;;5031671;28;20040;-76
2023/08/20 07:18:47;;;;;;;19.93;8.13;;;25.60;98.00;;;;;;5030215;28;20621;-78
2023/08/20 07:21:13;;;;;;;12.02;7.80;;;25.60;96.30;;;;;;5036927;28;20166;-80
2023/08/20 07:23:38;;;;;;;12.67;7.53;;;25.20;97.90;;;;;;5032249;28;20515;-79
2023/08/20 07:26:12;;;;;;;9.80;7.43;;;25.00;99.60;;;;;;5029603;28;20071;-78
2023/08/20 07:28:56;;;;;;;11.13;8.18;;;24.80;99.70;;;;;;5037916;28;20108;-77
2023/08/20 07:31:25;;;;;;;10.25;7.72;;;24.80;99.90;;;;;;5032850;28;20182;-78
2023/08/20 07:33:51;;;;;;;11.65;7.40;;;25.10;99.80;;;;;;5047838;28;20033;-77
2023/08/20 07:36:19;;;;;;;11.48;7.07;;;25.80;97.80;;;;;;5040488;28;21068;-75
2023/08/20 07:38:44;;;;;;;9.55;7.50;;;25.80;98.10;;;;;;5034810;28;20086;-67
2023/08/20 07:41:11;;;;;;;13.65;7.80;;;25.50;99.10;;;;;;5033066;28;20041;-72
2023/08/20 07:43:39;;;;;;;;;;;25.30;99.90;;;;;;5034235;28;20048;-72
2023/08/20 07:46:06;;;;;;;10.75;6.75;;;25.20;99.90;;;;;;5032355;28;19913;-77
2023/08/20 07:48:32;;;;;;;13.32;7.05;;;25.20;99.90;;;;;;5035383;28;20505;-73
2023/08/20 07:50:58;;;;;;;13.27;7.67;;;25.20;99.90;;;;;;5035509;28;20041;-74
2023/08/20 07:53:23;;;;;;;14.38;7.22;;;25.30;99.90;;;;;;5033845;28;20409;-74
2023/08/20 07:55:49;;;;;;;12.30;7.87;;;25.60;99.90;;;;;;5027669;28;20033;-73
2023/08/20 07:58:15;;;;;;;9.55;6.88;;;25.60;99.90;;;;;;5037432;28;20481;-72
2023/08/20 08:00:40;;;;;;;12.88;7.88;;;25.50;99.90;;;;;;5032916;28;20052;-73
2023/08/20 08:03:06;;;;;;;10.68;7.38;;;25.30;99.90;;;;;;5036064;28;20112;-74
2023/08/20 08:05:31;;;;;;;14.43;8.53;;;25.50;99.90;;;;;;5034171;28;20048;-73
2023/08/20 08:07:57;;;;;;;8.50;7.07;;;26.00;99.90;;;;;;5034322;28;20911;-73
2023/08/20 08:10:23;;;;;;;11.05;7.60;;;26.00;99.90;;;;;;5028978;28;20318;-74
2023/08/20 08:12:48;;;;;;;10.63;6.78;;;25.80;99.90;;;;;;5037346;28;20038;-74
2023/08/20 08:15:14;;;;;;;12.10;6.50;;;26.00;99.90;;;;;;5038184;28;20182;-74
2023/08/20 08:17:40;;;;;;;9.52;6.93;;;30.00;99.90;;;;;;5032362;28;20093;-73
2023/08/20 08:20:06;;;;;;;9.75;6.72;;;33.10;94.90;;;;;;5040081;28;20045;-74
2023/08/20 08:22:31;;;;;;;;;;;34.70;83.80;;;;;;5038318;28;20033;-71
2023/08/20 08:24:57;;;;;;;9.60;6.53;;;35.80;75.70;;;;;;5034663;28;20106;-71
2023/08/20 08:27:23;;;;;;;12.60;6.13;;;35.30;77.60;;;;;;5037539;28;20108;-71
2023/08/20 08:29:50;;;;;;;18.20;6.03;;;35.30;79.80;;;;;;5038185;28;20116;-71
2023/08/20 08:32:15;;;;;;;9.32;5.60;;;35.60;73.00;;;;;;5040890;28;20029;-71
2023/08/20 08:34:41;;;;;;;;;;;33.40;75.30;;;;;;5036661;28;20036;-70
2023/08/20 08:37:06;;;;;;;8.77;5.78;;;31.50;88.70;;;;;;5037416;28;19923;-73
2023/08/20 08:39:32;;;;;;;9.35;6.38;;;30.20;90.10;;;;;;5040287;28;20070;-72
2023/08/20 08:42:07;;;;;;;10.05;5.97;;;28.90;92.20;;;;;;5038254;28;20084;-72
2023/08/20 08:44:33;;;;;;;16.92;6.53;;;28.40;96.40;;;;;;5035693;28;20028;-72
2023/08/20 08:46:59;;;;;;;34.20;7.25;;;28.10;97.50;;;;;;5035677;28;20060;-72
2023/08/20 08:49:30;;;;;;;9.13;6.25;;;27.90;98.70;;;;;;5031676;28;20048;-71
2023/08/20 08:51:57;;;;;;;12.27;5.90;;;27.90;99.90;;;;;;5035404;28;20040;-70
2023/08/20 08:54:23;;;;;;;9.32;5.80;;;28.40;99.90;;;;;;5035157;28;20025;-72
2023/08/20 08:56:49;;;;;;;10.23;6.38;;;28.80;94.50;;;;;;5032409;28;20076;-73
2023/08/20 08:59:15;;;;;;;11.13;5.90;;;29.30;96.80;;;;;;5037129;28;20033;-74
2023/08/20 09:01:41;;;;;;;12.93;6.20;;;30.10;98.10;;;;;;5036084;28;20483;-71
2023/08/20 09:04:07;;;;;;;8.02;6.05;;;30.10;93.70;;;;;;5032352;28;20025;-73
2023/08/20 09:06:49;;;;;;;10.07;7.00;;;29.70;93.70;;;;;;5037098;28;20040;-72
2023/08/20 09:09:17;;;;;;;15.95;6.20;;;29.90;93.40;;;;;;5032309;28;20036;-71
2023/08/20 09:11:43;;;;;;;7.75;5.97;;;30.60;92.60;;;;;;5036442;28;20570;-71
2023/08/20 09:14:24;;;;;;;11.48;5.85;;;31.80;91.00;;;;;;5034217;28;20029;-72
2023/08/20 09:17:00;;;;;;;10.07;6.60;;;32.70;79.60;;;;;;5039270;28;20057;-70
2023/08/20 09:19:34;;;;;;;8.50;6.22;;;34.10;82.20;;;;;;5038191;28;20025;-70
2023/08/20 09:22:00;;;;;;;12.48;5.53;;;33.10;77.20;;;;;;5036714;28;20065;-71
2023/08/20 09:24:27;;;;;;;;;;;31.10;85.00;;;;;;5037147;28;20590;-71
2023/08/20 09:26:58;;;;;;;8.63;5.53;;;30.40;84.60;;;;;;5042673;28;19912;-70
2023/08/20 09:29:24;;;;;;;11.23;4.90;;;31.90;88.70;;;;;;5032551;28;20037;-70
2023/08/20 09:31:59;;;;;;;;;;;33.70;79.70;;;;;;5031911;28;20027;-71
2023/08/20 09:34:25;;;;;;;10.80;6.05;;;34.20;82.00;;;;;;5038427;28;19909;-70
2023/08/20 09:36:50;;;;;;;;;;;34.30;78.70;;;;;;5035384;28;20497;-70
2023/08/20 09:39:16;;;;;;;11.07;5.13;;;36.80;73.10;;;;;;5034190;28;20733;-70
2023/08/20 09:41:42;;;;;;;9.57;5.57;;;38.60;71.00;;;;;;5037175;28;20041;-71
2023/08/20 09:44:08;;;;;;;11.45;5.15;;;39.40;69.50;;;;;;5037627;28;20033;-71
2023/08/20 09:46:36;;;;;;;14.23;4.95;;;40.50;69.00;;;;;;5038367;28;20091;-71
2023/08/20 09:49:03;;;;;;;10.02;5.20;;;40.50;65.40;;;;;;5036579;28;20021;-71
2023/08/20 09:51:33;;;;;;;8.85;5.00;;;40.50;63.90;;;;;;5033527;28;20509;-70
2023/08/20 09:54:26;;;;;;;8.88;5.00;;;40.70;67.40;;;;;;5035065;28;20029;-70
2023/08/20 09:56:58;;;;;;;7.93;5.50;;;41.60;69.40;;;;;;5039302;28;20496;-72
2023/08/20 09:59:25;;;;;;;9.43;4.55;;;42.10;61.90;;;;;;5033965;28;20025;-72
2023/08/20 10:01:51;;;;;;;9.95;4.95;;;42.20;65.50;;;;;;5034803;28;20029;-71
2023/08/20 10:04:18;;;;;;;8.55;4.53;;;42.60;62.00;;;;;;5035739;28;20034;-71
2023/08/20 10:06:44;;;;;;;10.60;5.32;;;42.50;62.50;;;;;;5033257;28;20029;-72
2023/08/20 10:09:10;;;;;;;11.05;4.88;;;42.50;61.50;;;;;;5032614;28;20112;-72
2023/08/20 10:11:37;;;;;;;6.15;4.60;;;42.50;60.60;;;;;;5035290;28;20017;-74
2023/08/20 10:14:03;;;;;;;8.85;5.13;;;42.00;60.90;;;;;;5039994;28;20488;-71
2023/08/20 10:16:29;;;;;;;9.35;4.55;;;42.40;62.30;;;;;;5036388;28;20052;-73
2023/08/20 10:18:59;;;;;;;10.25;5.32;;;42.90;74.60;;;;;;5035821;28;20489;-71
2023/08/20 10:21:26;;;;;;;11.02;5.28;;;42.80;61.80;;;;;;5033448;28;20044;-71
2023/08/20 10:23:53;;;;;;;10.60;4.95;;;42.80;59.50;;;;;;5030202;28;20036;-71
2023/08/20 10:26:21;;;;;;;7.65;4.50;;;42.80;59.80;;;;;;5039314;28;20022;-71
2023/08/20 10:28:47;;;;;;;6.90;4.95;;;42.70;59.30;;;;;;5034580;28;20112;-72
2023/08/20 10:31:15;;;;;;;8.55;4.63;;;42.50;59.80;;;;;;5030622;28;20643;-73
2023/08/20 10:33:47;;;;;;;9.57;4.65;;;42.30;59.30;;;;;;5049196;28;20034;-71
2023/08/20 10:36:30;;;;;;;10.27;4.47;;;42.10;59.80;;;;;;5035849;28;20087;-74
2023/08/20 10:38:58;;;;;;;15.25;4.95;;;42.00;60.10;;;;;;5030456;28;20044;-69
2023/08/20 10:41:28;;;;;;;7.60;4.53;;;41.20;59.40;;;;;;5039274;28;20083;-71
2023/08/20 10:43:58;;;;;;;9.45;4.43;;;38.30;60.50;;;;;;5037373;28;20591;-73
2023/08/20 10:46:25;;;;;;;8.88;4.57;;;36.40;62.20;;;;;;5037293;28;20035;-71
2023/08/20 10:49:02;;;;;;;7.88;4.50;;;35.20;66.60;;;;;;5033229;28;20033;-70
2023/08/20 10:51:33;;;;;;;13.52;4.18;;;34.60;72.20;;;;;;5035603;28;20064;-69
2023/08/20 10:54:05;;;;;;;12.30;5.20;;;33.80;68.10;;;;;;5035959;28;20079;-71
2023/08/20 10:56:45;;;;;;;13.00;5.20;;;33.50;69.10;;;;;;5034348;28;20046;-72
2023/08/20 10:59:22;;;;;;;8.77;4.68;;;33.30;64.20;;;;;;5037539;28;20063;-74
2023/08/20 11:01:52;;;;;;;12.55;5.20;;;33.10;64.10;;;;;;5031698;28;20060;-73
2023/08/20 11:04:20;;;;;;;9.15;4.70;;;33.00;64.90;;;;;;5029269;28;20033;-71
2023/08/20 11:06:46;;;;;;;9.93;4.80;;;32.90;68.30;;;;;;5035918;28;20044;-72
2023/08/20 11:09:13;;;;;;;11.00;5.47;;;32.90;69.10;;;;;;5033295;28;20057;-76
2023/08/20 11:11:42;;;;;;;16.60;6.07;;;32.70;67.90;;;;;;5034752;28;20039;-73
2023/08/20 11:14:13;;;;;;;8.00;5.20;;;32.50;67.90;;;;;;5036480;28;20069;-75
2023/08/20 11:16:39;;;;;;;11.60;5.30;;;32.50;66.60;;;;;;5038215;28;20092;-75
2023/08/20 11:19:08;;;;;;;;;;;32.40;69.40;;;;;;5030861;28;20076;-72
2023/08/20 11:21:43;;;;;;;11.15;5.30;;;32.30;65.70;;;;;;5034856;28;19921;-74
2023/08/20 11:24:10;;;;;;;10.30;4.65;;;32.40;65.00;;;;;;5038836;28;20024;-75
2023/08/20 11:26:38;;;;;;;11.63;5.65;;;32.20;70.60;;;;;;5035805;28;20116;-74
2023/08/20 11:29:08;;;;;;;9.75;5.05;;;32.30;66.00;;;;;;5037838;28;20032;-72
2023/08/20 11:31:35;;;;;;;15.38;5.35;;;32.10;66.00;;;;;;5028824;28;20033;-71
2023/08/20 11:34:02;;;;;;;10.75;5.00;;;32.00;66.80;;;;;;5034108;28;20041;-73
2023/08/20 11:36:28;;;;;;;10.90;4.82;;;32.50;74.10;;;;;;5034382;28;20036;-70
2023/08/20 11:38:54;;;;;;;;;;;33.10;70.60;;;;;;5034919;28;20033;-76
2023/08/20 11:41:21;;;;;;;12.32;4.80;;;33.40;71.20;;;;;;5040066;28;20243;-77
2023/08/20 11:43:47;;;;;;;9.05;4.15;;;33.50;70.90;;;;;;5037421;28;20404;-82
2023/08/20 11:46:15;;;;;;;7.43;4.38;;;33.80;74.40;;;;;;5040701;28;20044;-77
2023/08/20 11:49:03;;;;;;;6.93;4.70;;;33.80;73.00;;;;;;5033469;28;20116;-76
2023/08/20 11:51:29;;;;;;;7.63;4.78;;;33.80;70.80;;;;;;5030291;28;20025;-77
2023/08/20 11:53:56;;;;;;;11.73;4.90;;;33.70;70.20;;;;;;5030631;28;20175;-81
2023/08/20 11:56:22;;;;;;;10.88;4.50;;;33.60;71.70;;;;;;5037233;28;20036;-78
2023/08/20 11:58:51;;;;;;;;;;;33.70;73.20;;;;;;5035571;28;20033;-79
2023/08/20 12:01:18;;;;;;;8.43;4.70;;;33.60;69.40;;;;;;5029660;28;19928;-78
2023/08/20 12:03:45;;;;;;;6.85;3.72;;;33.70;70.90;;;;;;5036278;28;20140;-78
2023/08/20 12:06:20;;;;;;;9.70;4.50;;;33.60;70.50;;;;;;5034919;28;20740;-81
2023/08/20 12:08:46;;;;;;;11.23;4.60;;;33.70;67.90;;;;;;5035866;28;20040;-74
2023/08/20 12:11:12;;;;;;;;;;;33.60;70.60;;;;;;5036386;28;20275;-80
2023/08/20 12:13:38;;;;;;;12.00;7.18;;;33.60;70.50;;;;;;5036815;28;19940;-74
2023/08/20 12:16:04;;;;;;;;;;;33.70;70.00;;;;;;5031549;28;20468;-78
2023/08/20 12:18:29;;;;;;;18.33;4.45;;;33.90;70.40;;;;;;5030058;28;20004;-80
2023/08/20 12:20:55;;;;;;;7.43;4.50;;;33.90;69.90;;;;;;5038217;28;20042;-75
2023/08/20 12:23:21;;;;;;;;;;;33.90;67.20;;;;;;5033723;28;20108;-79
2023/08/20 12:25:51;;;;;;;12.57;3.70;;;34.00;68.90;;;;;;5032835;28;20477;-79
2023/08/20 12:28:17;;;;;;;6.50;4.00;;;34.10;65.80;;;;;;5036247;28;20029;-80
2023/08/20 12:30:43;;;;;;;18.88;4.22;;;34.20;68.00;;;;;;5034098;28;20064;-78
2023/08/20 12:33:08;;;;;;;;;;;34.20;66.30;;;;;;5034582;28;20540;-76
2023/08/20 12:35:34;;;;;;;11.20;4.07;;;34.20;69.00;;;;;;5031874;28;19913;-78
2023/08/20 12:38:00;;;;;;;;;;;34.20;67.80;;;;;;5032212;28;20029;-80
2023/08/20 12:40:26;;;;;;;10.70;3.97;;;34.20;68.20;;;;;;5034373;28;19928;-79
2023/08/20 12:42:51;;;;;;;;;;;34.20;65.60;;;;;;5038207;28;20025;-80